createdAt,value
2019-01-24T00:01:56.509Z,-1.90
2019-01-24T00:04:25.333Z,-1.80
2019-01-24T00:06:54.287Z,-1.90
2019-01-24T00:09:23.086Z,-1.90
2019-01-24T00:11:51.976Z,-2.00
2019-01-24T00:14:20.807Z,-1.80
2019-01-24T00:16:52.847Z,-2.20
2019-01-24T00:19:33.580Z,-2.10
2019-01-24T00:22:05.496Z,-2.10
2019-01-24T00:24:37.174Z,-2.00
2019-01-24T00:27:06.057Z,-2.00
2019-01-24T00:29:34.882Z,-2.00
2019-01-24T00:32:03.850Z,-2.10
2019-01-24T00:34:35.546Z,-2.10
2019-01-24T00:37:10.304Z,-2.20
2019-01-24T00:39:42.211Z,-2.10
2019-01-24T00:42:11.412Z,-2.10
2019-01-24T00:44:40.335Z,-2.20
2019-01-24T00:47:09.237Z,-2.20
2019-01-24T00:49:44.090Z,-2.10
2019-01-24T00:52:16.018Z,-2.20
2019-01-24T00:54:45.677Z,-2.30
2019-01-24T00:57:17.742Z,-2.20
2019-01-24T00:59:48.263Z,-2.10
2019-01-24T01:02:20.016Z,-2.20
2019-01-24T01:04:51.677Z,-2.00
2019-01-24T01:07:23.439Z,-2.10
2019-01-24T01:09:52.231Z,-2.00
2019-01-24T01:12:27.093Z,-2.10
2019-01-24T01:14:59.152Z,-2.20
2019-01-24T01:17:28.061Z,-2.30
2019-01-24T01:20:02.992Z,-2.20
2019-01-24T01:22:31.870Z,-2.30
2019-01-24T01:25:00.757Z,-2.20
2019-01-24T01:27:32.413Z,-2.30
2019-01-24T01:30:01.372Z,-2.30
2019-01-24T01:32:36.057Z,-2.40
2019-01-24T01:35:05.613Z,-2.50
2019-01-24T01:37:37.433Z,-2.50
2019-01-24T01:40:10.557Z,-2.40
2019-01-24T01:42:39.493Z,-2.40
2019-01-24T01:45:14.480Z,-2.30
2019-01-24T01:47:50.842Z,-2.30
2019-01-24T01:50:29.243Z,-2.40
2019-01-24T01:52:59.031Z,-2.50
2019-01-24T01:55:34.076Z,-2.40
2019-01-24T01:58:05.796Z,-2.40
2019-01-24T02:00:34.744Z,-2.50
2019-01-24T02:03:03.796Z,-2.40
2019-01-24T02:05:32.677Z,-2.50
2019-01-24T02:08:01.853Z,-2.40
2019-01-24T02:10:38.308Z,-2.40
2019-01-24T02:13:07.491Z,-2.40
2019-01-24T02:15:36.434Z,-2.40
2019-01-24T02:18:07.182Z,-2.40
2019-01-24T02:20:36.132Z,-2.40
2019-01-24T02:23:08.360Z,-2.50
2019-01-24T02:25:37.581Z,-2.40
2019-01-24T02:28:06.806Z,-2.40
2019-01-24T02:30:38.776Z,-2.40
2019-01-24T02:33:07.737Z,-2.50
2019-01-24T02:35:36.647Z,-2.60
2019-01-24T02:38:05.593Z,-2.60
2019-01-24T02:40:34.412Z,-2.60
2019-01-24T02:43:16.582Z,-2.50
2019-01-24T02:45:48.453Z,-2.70
2019-01-24T02:48:17.338Z,-2.60
2019-01-24T02:50:48.040Z,-2.60
2019-01-24T02:53:16.921Z,-2.60
2019-01-24T02:55:45.717Z,-2.70
2019-01-24T02:58:17.546Z,-2.60
2019-01-24T03:00:46.777Z,-2.60
2019-01-24T03:03:18.752Z,-2.80
2019-01-24T03:05:47.711Z,-2.80
2019-01-24T03:08:17.688Z,-2.70
2019-01-24T03:10:46.597Z,-2.60
2019-01-24T03:13:15.467Z,-2.60
2019-01-24T03:15:44.438Z,-2.50
2019-01-24T03:18:16.168Z,-2.60
2019-01-24T03:20:45.138Z,-2.70
2019-01-24T03:23:14.605Z,-2.50
2019-01-24T03:25:43.818Z,-2.60
2019-01-24T03:28:12.782Z,-2.60
2019-01-24T03:30:41.831Z,-2.60
2019-01-24T03:33:10.717Z,-2.50
2019-01-24T03:35:42.941Z,-2.50
2019-01-24T03:38:14.637Z,-2.50
2019-01-24T03:40:43.524Z,-2.50
2019-01-24T03:43:12.416Z,-2.40
2019-01-24T03:45:41.222Z,-2.50
2019-01-24T03:48:10.417Z,-2.40
2019-01-24T03:50:39.622Z,-2.50
2019-01-24T03:53:11.736Z,-2.50
2019-01-24T03:55:46.786Z,-2.50
2019-01-24T03:58:15.757Z,-2.60
2019-01-24T04:00:50.858Z,-2.60
2019-01-24T04:03:22.840Z,-2.70
2019-01-24T04:05:57.800Z,-2.80
2019-01-24T04:08:32.397Z,-2.80
2019-01-24T04:11:01.237Z,-2.80
2019-01-24T04:13:30.121Z,-2.80
2019-01-24T04:16:00.689Z,-2.90
2019-01-24T04:18:29.549Z,-2.80
2019-01-24T04:20:58.356Z,-2.80
2019-01-24T04:23:27.186Z,-2.80
2019-01-24T04:25:56.337Z,-2.80
2019-01-24T04:28:26.474Z,-2.80
2019-01-24T04:30:55.301Z,-2.90
2019-01-24T04:33:26.898Z,-2.90
2019-01-24T04:35:56.480Z,-2.80
2019-01-24T04:38:28.041Z,-3.00
2019-01-24T04:41:05.830Z,-2.80
2019-01-24T04:43:44.047Z,-2.80
2019-01-24T04:46:15.995Z,-2.80
2019-01-24T04:48:44.831Z,-2.80
2019-01-24T04:51:15.044Z,-2.90
2019-01-24T04:53:49.695Z,-2.90
2019-01-24T04:56:18.581Z,-2.90
2019-01-24T04:58:53.556Z,-3.10
2019-01-24T05:01:22.384Z,-3.10
2019-01-24T05:03:54.197Z,-3.00
2019-01-24T05:06:23.174Z,-3.00
2019-01-24T05:08:55.307Z,-3.10
2019-01-24T05:11:24.219Z,-3.00
2019-01-24T05:13:59.099Z,-3.00
2019-01-24T05:16:44.611Z,-3.00
2019-01-24T05:19:04.820Z,-3.10
2019-01-24T05:21:33.914Z,-3.30
2019-01-24T05:24:06.911Z,-3.20
2019-01-24T05:26:35.748Z,-3.20
2019-01-24T05:29:16.776Z,-3.10
2019-01-24T05:31:48.755Z,-3.10
2019-01-24T05:34:20.732Z,-3.00
2019-01-24T05:36:53.820Z,-2.90
2019-01-24T05:39:22.996Z,-3.00
2019-01-24T05:41:54.910Z,-3.20
2019-01-24T05:44:29.698Z,-3.10
2019-01-24T05:46:58.574Z,-3.00
2019-01-24T05:49:31.635Z,-3.00
2019-01-24T05:52:06.796Z,-3.00
2019-01-24T05:54:38.847Z,-3.00
2019-01-24T05:57:07.744Z,-3.10
2019-01-24T05:59:39.385Z,-3.10
2019-01-24T06:02:08.598Z,-3.30
2019-01-24T06:04:43.243Z,-3.20
2019-01-24T06:07:18.327Z,-3.20
2019-01-24T06:09:53.220Z,-3.20
2019-01-24T06:12:23.397Z,-3.40
2019-01-24T06:14:58.408Z,-3.20
2019-01-24T06:17:27.490Z,-3.10
2019-01-24T06:19:59.147Z,-3.20
2019-01-24T06:22:28.361Z,-3.40
2019-01-24T06:25:00.044Z,-3.40
2019-01-24T06:27:33.152Z,-3.40
2019-01-24T06:30:05.202Z,-3.50
2019-01-24T06:32:37.195Z,-3.50
2019-01-24T06:35:06.272Z,-3.50
2019-01-24T06:37:41.397Z,-3.50
2019-01-24T06:40:10.776Z,-3.40
2019-01-24T06:42:39.671Z,-3.40
2019-01-24T06:45:11.488Z,-3.40
2019-01-24T06:47:52.580Z,-3.40
2019-01-24T06:50:21.780Z,-3.40
2019-01-24T06:52:53.589Z,-3.30
2019-01-24T06:55:27.497Z,-3.30
2019-01-24T06:57:56.570Z,-3.50
2019-01-24T07:00:25.538Z,-3.40
2019-01-24T07:02:54.345Z,-3.40
2019-01-24T07:05:23.547Z,-3.30
2019-01-24T07:07:52.494Z,-3.40
2019-01-24T07:10:22.253Z,-3.40
2019-01-24T07:12:51.123Z,-3.40
2019-01-24T07:15:28.919Z,-3.30
2019-01-24T07:17:55.437Z,-3.30
2019-01-24T07:20:24.388Z,-3.50
2019-01-24T07:22:53.345Z,-3.40
2019-01-24T07:25:24.311Z,-3.40
2019-01-24T07:27:53.526Z,-3.50
2019-01-24T07:30:28.540Z,-3.40
2019-01-24T07:32:57.348Z,-3.40
2019-01-24T07:35:32.353Z,-3.40
2019-01-24T07:38:01.240Z,-3.40
2019-01-24T07:40:30.165Z,-3.40
2019-01-24T07:42:59.815Z,-3.50
2019-01-24T07:45:47.964Z,-3.50
2019-01-24T07:48:16.936Z,-3.50
2019-01-24T07:50:46.077Z,-3.40
2019-01-24T07:53:15.028Z,-3.30
2019-01-24T07:55:44.002Z,-3.20
2019-01-24T07:58:18.785Z,-3.20
2019-01-24T08:00:49.159Z,-3.30
2019-01-24T08:03:19.579Z,-3.10
2019-01-24T08:05:48.794Z,-3.00
2019-01-24T08:08:17.778Z,-3.00
2019-01-24T08:10:46.670Z,-3.00
2019-01-24T08:13:15.639Z,-2.90
2019-01-24T08:15:45.770Z,-3.00
2019-01-24T08:18:14.939Z,-2.90
2019-01-24T08:20:44.090Z,-2.80
2019-01-24T08:23:15.680Z,-2.80
2019-01-24T08:25:44.552Z,-2.90
2019-01-24T08:28:13.754Z,-2.90
2019-01-24T08:30:43.469Z,-3.00
2019-01-24T08:33:12.408Z,-3.10
2019-01-24T08:35:41.810Z,-3.00
2019-01-24T08:38:11.133Z,-2.90
2019-01-24T08:40:41.107Z,-2.90
2019-01-24T08:43:10.924Z,-2.80
2019-01-24T08:45:39.865Z,-2.90
2019-01-24T08:48:08.746Z,-2.80
2019-01-24T08:50:37.560Z,-2.70
2019-01-24T08:53:07.025Z,-3.10
2019-01-24T08:55:40.956Z,-3.20
2019-01-24T08:58:10.420Z,-2.90
2019-01-24T09:00:39.417Z,-3.00
2019-01-24T09:03:09.234Z,-2.80
2019-01-24T09:05:38.177Z,-2.80
2019-01-24T09:08:07.257Z,-2.70
2019-01-24T09:10:38.189Z,-2.60
2019-01-24T09:13:08.317Z,-2.50
2019-01-24T09:15:37.686Z,-2.30
2019-01-24T09:18:10.607Z,-2.40
2019-01-24T09:20:39.557Z,-2.40
2019-01-24T09:23:08.837Z,-2.30
2019-01-24T09:25:37.904Z,-2.20
2019-01-24T09:28:06.805Z,-2.50
2019-01-24T09:30:38.611Z,-2.30
2019-01-24T09:33:07.569Z,-2.20
2019-01-24T09:35:36.533Z,-2.10
2019-01-24T09:38:05.634Z,-2.00
2019-01-24T09:40:34.424Z,-2.10
2019-01-24T09:43:03.392Z,-2.30
2019-01-24T09:45:32.385Z,-2.10
2019-01-24T09:48:01.890Z,-2.00
2019-01-24T09:50:31.085Z,-2.20
2019-01-24T09:53:00.301Z,-2.10
2019-01-24T09:55:29.240Z,-2.30
2019-01-24T09:58:01.157Z,-2.00
2019-01-24T10:00:34.797Z,-1.80
2019-01-24T10:03:04.076Z,-2.20
2019-01-24T10:05:33.190Z,-2.30
2019-01-24T10:08:02.137Z,-2.50
2019-01-24T10:10:31.127Z,-2.40
2019-01-24T10:13:00.017Z,-2.40
2019-01-24T10:15:29.231Z,-2.20
2019-01-24T10:17:58.467Z,-2.10
2019-01-24T10:20:28.069Z,-2.20
2019-01-24T10:22:57.132Z,-2.50
2019-01-24T10:25:32.094Z,-2.50
2019-01-24T10:28:03.920Z,-2.60
2019-01-24T10:30:32.888Z,-2.30
2019-01-24T10:33:01.833Z,-2.30
2019-01-24T10:35:31.148Z,-2.30
2019-01-24T10:37:59.936Z,-2.20
2019-01-24T10:40:30.144Z,-2.10
2019-01-24T10:42:59.346Z,-2.10
2019-01-24T10:45:31.270Z,-2.20
2019-01-24T10:48:02.294Z,-2.10
2019-01-24T10:50:31.556Z,-2.10
2019-01-24T10:53:02.426Z,-2.00
2019-01-24T10:55:31.961Z,-2.20
2019-01-24T10:58:04.846Z,-1.90
2019-01-24T11:00:43.200Z,-1.80
2019-01-24T11:03:15.558Z,-1.80
2019-01-24T11:05:45.528Z,-1.60
2019-01-24T11:08:16.207Z,-1.50
2019-01-24T11:10:45.892Z,-1.30
2019-01-24T11:13:15.133Z,-1.60
2019-01-24T11:15:46.443Z,-1.70
2019-01-24T11:18:18.270Z,-1.90
2019-01-24T11:20:47.255Z,-1.90
2019-01-24T11:23:16.853Z,-1.90
2019-01-24T11:25:48.708Z,-1.60
2019-01-24T11:28:17.902Z,-1.40
2019-01-24T11:30:52.711Z,-1.30
2019-01-24T11:33:24.755Z,-1.50
2019-01-24T11:35:53.576Z,-1.40
2019-01-24T11:38:22.595Z,-1.70
2019-01-24T11:40:54.598Z,-1.50
2019-01-24T11:43:23.562Z,-1.50
2019-01-24T11:45:55.457Z,-1.80
2019-01-24T11:48:27.443Z,-1.90
2019-01-24T11:50:56.350Z,-1.70
2019-01-24T11:53:26.972Z,-1.60
2019-01-24T11:55:56.236Z,-1.50
2019-01-24T11:58:25.168Z,-1.50
2019-01-24T12:00:55.837Z,-1.50
2019-01-24T12:03:28.010Z,-1.30
2019-01-24T12:06:00.137Z,-1.20
2019-01-24T12:08:29.150Z,-1.50
2019-01-24T12:11:01.159Z,-1.50
2019-01-24T12:13:32.853Z,-1.20
2019-01-24T12:16:01.773Z,-1.30
2019-01-24T12:18:30.706Z,-1.20
2019-01-24T12:21:01.094Z,-1.40
2019-01-24T12:23:34.725Z,-1.20
2019-01-24T12:26:03.711Z,-1.10
2019-01-24T12:28:32.549Z,-1.20
2019-01-24T12:31:04.029Z,-1.40
2019-01-24T12:33:32.907Z,-1.50
2019-01-24T12:36:04.929Z,-1.60
2019-01-24T12:38:36.582Z,-1.70
2019-01-24T12:41:05.562Z,-1.70
2019-01-24T12:43:34.365Z,-1.60
2019-01-24T12:46:03.273Z,-1.40
2019-01-24T12:48:33.080Z,-1.30
2019-01-24T12:51:01.900Z,-1.50
2019-01-24T12:53:33.552Z,-1.30
2019-01-24T12:56:02.657Z,-1.10
2019-01-24T12:58:31.548Z,-1.20
2019-01-24T13:01:00.498Z,-0.90
2019-01-24T13:03:32.293Z,-0.80
2019-01-24T13:06:01.272Z,-0.90
2019-01-24T13:08:36.230Z,-1.50
2019-01-24T13:11:05.685Z,-1.40
2019-01-24T13:13:40.384Z,-1.70
2019-01-24T13:16:09.293Z,-1.60
2019-01-24T13:18:38.444Z,-1.50
2019-01-24T13:21:07.369Z,-1.60
2019-01-24T13:23:36.680Z,-1.50
2019-01-24T13:26:05.862Z,-1.70
2019-01-24T13:28:36.209Z,-1.60
2019-01-24T13:31:14.391Z,-1.80
2019-01-24T13:33:47.802Z,-2.00
2019-01-24T13:36:16.867Z,-2.00
2019-01-24T13:38:49.000Z,-2.10
2019-01-24T13:41:18.046Z,-2.00
2019-01-24T13:43:47.072Z,-2.00
2019-01-24T13:46:19.051Z,-2.00
2019-01-24T13:48:50.773Z,-2.30
2019-01-24T13:51:19.734Z,-2.20
2019-01-24T13:53:48.625Z,-2.20
2019-01-24T13:56:17.594Z,-2.30
2019-01-24T13:58:46.821Z,-2.20
2019-01-24T14:01:19.082Z,-2.30
2019-01-24T14:03:54.525Z,-2.30
2019-01-24T14:06:29.306Z,-2.30
2019-01-24T14:09:01.248Z,-2.40
2019-01-24T14:11:30.140Z,-2.40
2019-01-24T14:13:58.961Z,-2.20
2019-01-24T14:16:27.847Z,-2.20
2019-01-24T14:18:56.821Z,-2.30
2019-01-24T14:21:28.559Z,-2.20
2019-01-24T14:24:00.449Z,-2.10
2019-01-24T14:26:38.609Z,-2.30
2019-01-24T14:29:10.529Z,-2.10
2019-01-24T14:31:39.684Z,-2.20
2019-01-24T14:34:20.509Z,-2.10
2019-01-24T14:36:55.582Z,-2.30
2019-01-24T14:39:24.643Z,-2.20
2019-01-24T14:41:53.863Z,-2.20
2019-01-24T14:44:22.794Z,-2.20
2019-01-24T14:46:54.839Z,-2.30
2019-01-24T14:49:23.820Z,-2.10
2019-01-24T14:51:52.764Z,-2.30
2019-01-24T14:54:22.440Z,-2.30
2019-01-24T14:56:51.297Z,-2.30
2019-01-24T14:59:20.130Z,-2.20
2019-01-24T15:01:49.090Z,-2.20
2019-01-24T15:04:20.885Z,-2.20
2019-01-24T15:06:49.692Z,-2.30
2019-01-24T15:09:21.620Z,-2.20
2019-01-24T15:11:50.502Z,-2.20
2019-01-24T15:14:19.438Z,-2.30
2019-01-24T15:16:51.506Z,-2.30
2019-01-24T15:19:21.319Z,-2.40
2019-01-24T15:21:52.428Z,-2.30
2019-01-24T15:24:27.992Z,-2.30
2019-01-24T15:26:58.983Z,-2.20
2019-01-24T15:29:29.232Z,-2.30
2019-01-24T15:31:59.052Z,-2.10
2019-01-24T15:34:28.479Z,-2.30
2019-01-24T15:36:57.853Z,-2.40
2019-01-24T15:39:28.419Z,-2.60
2019-01-24T15:42:00.045Z,-2.40
2019-01-24T15:44:29.753Z,-2.50
2019-01-24T15:46:59.230Z,-2.30
2019-01-24T15:49:29.651Z,-2.40
2019-01-24T15:51:58.885Z,-2.60
2019-01-24T15:54:29.461Z,-2.60
2019-01-24T15:56:59.110Z,-2.50
2019-01-24T15:59:30.065Z,-2.30
2019-01-24T16:02:00.985Z,-2.20
2019-01-24T16:04:31.294Z,-2.40
2019-01-24T16:07:00.981Z,-2.40
2019-01-24T16:09:32.246Z,-2.40
2019-01-24T16:12:06.145Z,-2.40
2019-01-24T16:14:35.957Z,-2.40
2019-01-24T16:17:08.926Z,-2.40
2019-01-24T16:19:38.470Z,-2.30
2019-01-24T16:22:08.381Z,-2.20
2019-01-24T16:24:37.848Z,-2.20
2019-01-24T16:28:00.929Z,-2.20
2019-01-24T16:30:56.579Z,-2.00
2019-01-24T16:43:30.057Z,-2.30
2019-01-24T16:50:08.484Z,-2.40
2019-01-24T16:53:10.650Z,-2.40
2019-01-24T17:02:54.461Z,-2.40
2019-01-24T17:06:06.060Z,-2.40
2019-01-24T17:13:32.576Z,-2.30
2019-01-24T17:19:14.034Z,-2.40
2019-01-24T18:05:29.446Z,-2.20
2019-01-24T18:08:35.653Z,-2.30
2019-01-24T18:11:57.961Z,-2.30
2019-01-24T18:30:06.387Z,-2.50
2019-01-24T18:33:54.052Z,-2.50
2019-01-24T18:44:30.579Z,-2.30
2019-01-24T18:47:20.135Z,-2.40
2019-01-24T18:50:39.732Z,-2.40
2019-01-24T18:53:11.833Z,-2.40
2019-01-24T19:02:24.025Z,-2.40
2019-01-24T19:05:01.421Z,-2.30
2019-01-24T19:08:10.725Z,-2.50
2019-01-24T19:11:36.355Z,-2.50
2019-01-24T20:07:00.095Z,-2.80
2019-01-24T20:13:53.119Z,-2.70
2019-01-24T20:25:57.056Z,-2.70
2019-01-24T20:29:34.072Z,-2.60
2019-01-24T20:46:27.005Z,-2.60
2019-01-24T21:08:10.767Z,-2.60
2019-01-24T21:15:17.621Z,-2.70
2019-01-24T21:21:54.294Z,-2.70
2019-01-24T21:31:18.206Z,-2.70
2019-01-24T21:34:30.443Z,-2.80
2019-01-24T21:40:48.539Z,-2.80
2019-01-24T21:43:46.353Z,-2.80
2019-01-24T21:47:09.583Z,-2.70
2019-01-24T21:50:27.844Z,-2.80
2019-01-24T21:53:23.018Z,-2.90
2019-01-24T21:56:09.160Z,-2.70
2019-01-24T21:59:15.716Z,-2.80
2019-01-24T22:14:07.999Z,-2.90
2019-01-24T22:18:03.711Z,-2.80
2019-01-24T22:32:08.448Z,-2.90
2019-01-24T22:35:30.999Z,-2.90
2019-01-24T22:39:40.607Z,-3.00
2019-01-24T22:55:30.635Z,-2.90
2019-01-24T22:58:23.779Z,-2.80
2019-01-24T23:04:41.914Z,-3.20
2019-01-24T23:14:37.618Z,-3.20
2019-01-24T23:20:42.358Z,-3.10
2019-01-24T23:23:36.833Z,-3.00
2019-01-24T23:29:57.715Z,-3.00
2019-01-24T23:33:43.536Z,-3.00
2019-01-24T23:47:14.235Z,-3.00
2019-01-24T23:50:14.216Z,-3.10
2019-01-24T23:53:14.099Z,-3.10
2019-01-24T23:56:14.529Z,-3.10
